createdAt,value
2023-05-22T00:00:28.974Z,4.10
2023-05-22T00:01:28.983Z,4.30
2023-05-22T00:02:29.096Z,4.40
2023-05-22T00:03:29.066Z,3.50
2023-05-22T00:04:28.996Z,5.00
2023-05-22T00:05:29.006Z,3.40
2023-05-22T00:06:28.951Z,4.20
2023-05-22T00:07:28.946Z,3.00
2023-05-22T00:08:29.749Z,3.40
2023-05-22T00:09:28.936Z,4.70
2023-05-22T00:10:29.008Z,3.80
2023-05-22T00:11:28.938Z,4.40
2023-05-22T00:12:28.940Z,3.50
2023-05-22T00:13:28.940Z,4.80
2023-05-22T00:14:28.934Z,5.00
2023-05-22T00:15:28.914Z,3.00
2023-05-22T00:16:28.959Z,3.10
2023-05-22T00:17:28.933Z,3.40
2023-05-22T00:18:28.903Z,3.50
2023-05-22T00:19:28.938Z,3.80
2023-05-22T00:20:28.900Z,4.60
2023-05-22T00:21:28.896Z,2.70
2023-05-22T00:22:28.915Z,4.00
2023-05-22T00:23:28.907Z,4.50
2023-05-22T00:24:28.919Z,4.20
2023-05-22T00:25:28.886Z,3.80
2023-05-22T00:26:28.906Z,3.30
2023-05-22T00:27:28.873Z,3.30
2023-05-22T00:28:28.879Z,3.60
2023-05-22T00:29:28.870Z,3.40
2023-05-22T00:30:28.858Z,3.50
2023-05-22T00:31:28.882Z,3.80
2023-05-22T00:32:28.964Z,4.40
2023-05-22T00:33:28.864Z,4.90
2023-05-22T00:34:28.909Z,3.80
2023-05-22T00:35:28.841Z,3.80
2023-05-22T00:36:28.857Z,4.00
2023-05-22T00:37:30.914Z,3.50
2023-05-22T00:38:28.830Z,4.40
2023-05-22T00:39:28.844Z,3.80
2023-05-22T00:40:28.836Z,3.40
2023-05-22T00:41:28.828Z,3.20
2023-05-22T00:42:28.834Z,4.50
2023-05-22T00:43:28.843Z,3.20
2023-05-22T00:44:28.802Z,4.00
2023-05-22T00:45:28.833Z,3.40
2023-05-22T00:46:28.953Z,3.80
2023-05-22T00:47:28.855Z,4.30
2023-05-22T00:48:28.826Z,3.00
2023-05-22T00:49:28.822Z,4.30
2023-05-22T00:50:28.860Z,3.20
2023-05-22T00:51:28.806Z,4.20
2023-05-22T00:52:28.799Z,3.10
2023-05-22T00:53:28.785Z,4.20
2023-05-22T00:54:28.793Z,3.00
2023-05-22T00:55:28.767Z,4.00
2023-05-22T00:56:28.764Z,3.20
2023-05-22T00:57:28.751Z,5.00
2023-05-22T00:58:28.772Z,3.50
2023-05-22T00:59:28.763Z,2.90
2023-05-22T01:00:28.761Z,4.50
2023-05-22T01:01:28.760Z,4.70
2023-05-22T01:02:28.803Z,4.70
2023-05-22T01:03:28.834Z,2.60
2023-05-22T01:04:28.733Z,3.70
2023-05-22T01:05:28.732Z,4.30
2023-05-22T01:06:28.745Z,3.90
2023-05-22T01:07:28.722Z,3.60
2023-05-22T01:08:28.760Z,2.80
2023-05-22T01:09:28.736Z,3.60
2023-05-22T01:10:28.740Z,3.40
2023-05-22T01:11:28.697Z,3.90
2023-05-22T01:12:28.709Z,3.60
2023-05-22T01:13:28.697Z,3.40
2023-05-22T01:14:28.692Z,4.40
2023-05-22T01:15:28.725Z,5.70
2023-05-22T01:16:28.713Z,3.80
2023-05-22T01:17:28.771Z,3.90
2023-05-22T01:18:28.686Z,4.40
2023-05-22T01:19:28.742Z,4.20
2023-05-22T01:20:28.667Z,4.10
2023-05-22T01:21:28.663Z,4.20
2023-05-22T01:22:28.652Z,3.70
2023-05-22T01:23:28.655Z,4.30
2023-05-22T01:24:28.663Z,4.80
2023-05-22T01:25:28.631Z,3.60
2023-05-22T01:26:28.646Z,3.70
2023-05-22T01:27:28.619Z,4.20
2023-05-22T01:28:28.617Z,4.20
2023-05-22T01:29:28.635Z,4.00
2023-05-22T01:30:28.627Z,4.30
2023-05-22T01:31:28.644Z,4.80
2023-05-22T01:32:28.679Z,4.10
2023-05-22T01:33:28.718Z,4.70
2023-05-22T01:34:28.627Z,3.90
2023-05-22T01:35:28.593Z,4.80
2023-05-22T01:36:28.613Z,4.80
2023-05-22T01:37:28.601Z,3.70
2023-05-22T01:38:28.588Z,3.80
2023-05-22T01:39:28.583Z,4.20
2023-05-22T01:40:28.598Z,4.30
2023-05-22T01:41:28.593Z,2.90
2023-05-22T01:42:28.582Z,3.80
2023-05-22T01:43:28.559Z,4.70
2023-05-22T01:44:28.555Z,5.80
2023-05-22T01:45:49.614Z,4.20
2023-05-22T01:46:28.618Z,4.10
2023-05-22T01:47:28.556Z,4.80
2023-05-22T01:48:28.548Z,4.70
2023-05-22T01:49:28.573Z,5.40
2023-05-22T01:50:49.558Z,3.80
2023-05-22T01:51:28.528Z,4.10
2023-05-22T01:52:28.551Z,4.90
2023-05-22T01:53:28.535Z,5.10
2023-05-22T01:54:28.512Z,3.60
2023-05-22T01:55:28.534Z,4.20
2023-05-22T01:56:28.529Z,5.20
2023-05-22T01:57:28.519Z,3.90
2023-05-22T01:58:28.505Z,4.60
2023-05-22T01:59:28.500Z,4.60
2023-05-22T02:00:28.566Z,3.80
2023-05-22T02:01:28.564Z,3.50
2023-05-22T02:02:28.623Z,3.70
2023-05-22T02:03:28.607Z,3.20
2023-05-22T02:04:28.473Z,3.30
2023-05-22T02:05:28.496Z,4.60
2023-05-22T02:06:28.498Z,4.20
2023-05-22T02:07:28.484Z,4.90
2023-05-22T02:08:28.456Z,4.80
2023-05-22T02:09:28.478Z,4.90
2023-05-22T02:10:28.505Z,3.40
2023-05-22T02:11:28.486Z,4.60
2023-05-22T02:12:28.461Z,5.40
2023-05-22T02:13:28.438Z,4.10
2023-05-22T02:14:28.444Z,4.00
2023-05-22T02:15:28.484Z,3.50
2023-05-22T02:16:28.424Z,4.10
2023-05-22T02:17:28.492Z,3.90
2023-05-22T02:18:28.454Z,3.80
2023-05-22T02:19:28.440Z,4.20
2023-05-22T02:20:28.423Z,4.20
2023-05-22T02:21:28.419Z,4.40
2023-05-22T02:22:28.400Z,3.50
2023-05-22T02:23:28.406Z,4.00
2023-05-22T02:24:28.420Z,5.30
2023-05-22T02:25:28.396Z,5.70
2023-05-22T02:26:28.406Z,3.60
2023-05-22T02:27:28.411Z,4.30
2023-05-22T02:28:28.380Z,4.60
2023-05-22T02:29:28.373Z,3.90
2023-05-22T02:30:28.366Z,3.00
2023-05-22T02:31:28.434Z,3.40
2023-05-22T02:32:28.475Z,4.10
2023-05-22T02:33:28.387Z,5.00
2023-05-22T02:34:28.418Z,4.50
2023-05-22T02:35:28.353Z,3.30
2023-05-22T02:36:28.379Z,4.00
2023-05-22T02:37:28.342Z,5.80
2023-05-22T02:38:28.343Z,5.10
2023-05-22T02:39:28.351Z,4.20
2023-05-22T02:40:28.352Z,4.20
2023-05-22T02:41:28.325Z,4.00
2023-05-22T02:42:28.328Z,4.40
2023-05-22T02:43:28.305Z,4.30
2023-05-22T02:44:28.309Z,4.10
2023-05-22T02:45:28.328Z,4.30
2023-05-22T02:46:28.343Z,4.40
2023-05-22T02:47:28.397Z,3.20
2023-05-22T02:48:28.299Z,3.30
2023-05-22T02:49:28.296Z,4.80
2023-05-22T02:50:28.284Z,3.60
2023-05-22T02:51:28.302Z,4.50
2023-05-22T02:52:28.385Z,3.90
2023-05-22T02:53:28.279Z,4.80
2023-05-22T02:54:28.291Z,4.20
2023-05-22T02:55:28.258Z,4.40
2023-05-22T02:56:28.265Z,5.10
2023-05-22T02:57:28.265Z,3.70
2023-05-22T02:58:28.263Z,3.70
2023-05-22T02:59:28.244Z,3.60
2023-05-22T03:00:28.237Z,4.80
2023-05-22T03:01:28.277Z,6.00
2023-05-22T03:02:28.337Z,4.50
2023-05-22T03:03:28.314Z,5.20
2023-05-22T03:04:28.220Z,3.60
2023-05-22T03:05:28.217Z,3.70
2023-05-22T03:06:28.236Z,3.80
2023-05-22T03:07:28.229Z,4.70
2023-05-22T03:08:28.323Z,4.10
2023-05-22T03:09:28.214Z,3.70
2023-05-22T03:10:28.275Z,4.80
2023-05-22T03:11:28.190Z,5.10
2023-05-22T03:12:28.200Z,4.40
2023-05-22T03:13:28.173Z,4.90
2023-05-22T03:14:28.186Z,5.20
2023-05-22T03:15:28.170Z,5.20
2023-05-22T03:16:28.213Z,4.80
2023-05-22T03:17:28.237Z,4.70
2023-05-22T03:18:28.165Z,4.10
2023-05-22T03:19:28.270Z,4.20
2023-05-22T03:20:28.148Z,4.60
2023-05-22T03:21:28.147Z,4.40
2023-05-22T03:22:28.140Z,4.70
2023-05-22T03:23:28.155Z,4.30
2023-05-22T03:24:28.138Z,4.00
2023-05-22T03:25:28.137Z,4.10
2023-05-22T03:26:28.145Z,4.70
2023-05-22T03:27:28.121Z,4.00
2023-05-22T03:28:28.146Z,4.60
2023-05-22T03:29:28.128Z,4.20
2023-05-22T03:30:28.164Z,4.50
2023-05-22T03:31:28.102Z,3.90
2023-05-22T03:32:28.157Z,4.20
2023-05-22T03:33:28.126Z,4.40
2023-05-22T03:34:28.096Z,4.40
2023-05-22T03:35:28.116Z,5.20
2023-05-22T03:36:28.760Z,4.10
2023-05-22T03:37:28.074Z,5.50
2023-05-22T03:38:28.096Z,4.60
2023-05-22T03:39:28.079Z,3.70
2023-05-22T03:40:28.090Z,3.40
2023-05-22T03:41:28.066Z,5.50
2023-05-22T03:42:28.075Z,5.00
2023-05-22T03:43:28.070Z,5.10
2023-05-22T03:46:12.596Z,5.70
2023-05-22T03:47:12.537Z,5.20
2023-05-22T03:48:12.527Z,4.90
2023-05-22T03:49:12.516Z,4.90
2023-05-22T03:50:12.535Z,4.60
2023-05-22T03:51:12.514Z,4.40
2023-05-22T03:52:12.512Z,4.30
2023-05-22T03:53:12.499Z,4.70
2023-05-22T03:54:12.502Z,4.60
2023-05-22T03:55:12.492Z,4.20
2023-05-22T03:56:12.487Z,4.50
2023-05-22T03:57:12.489Z,4.80
2023-05-22T03:58:12.471Z,5.00
2023-05-22T03:59:12.481Z,4.70
2023-05-22T04:00:12.521Z,4.50
2023-05-22T04:01:12.472Z,5.00
2023-05-22T04:02:12.529Z,4.40
2023-05-22T04:03:12.572Z,5.50
2023-05-22T04:04:12.454Z,5.80
2023-05-22T04:05:12.513Z,4.70
2023-05-22T04:06:12.450Z,5.30
2023-05-22T04:07:12.435Z,4.80
2023-05-22T04:08:12.423Z,4.00
2023-05-22T04:09:12.426Z,5.50
2023-05-22T04:10:12.426Z,4.80
2023-05-22T04:11:12.421Z,3.90
2023-05-22T04:12:12.421Z,3.80
2023-05-22T04:13:12.407Z,5.60
2023-05-22T04:14:12.424Z,5.00
2023-05-22T04:15:12.398Z,4.40
2023-05-22T04:16:12.446Z,4.20
2023-05-22T04:17:12.388Z,4.10
2023-05-22T04:18:12.483Z,3.70
2023-05-22T04:19:12.441Z,3.80
2023-05-22T04:20:12.380Z,5.00
2023-05-22T04:21:12.375Z,5.00
2023-05-22T04:22:12.362Z,4.80
2023-05-22T04:23:12.365Z,4.00
2023-05-22T04:24:12.379Z,4.30
2023-05-22T04:25:12.352Z,3.30
2023-05-22T04:26:12.359Z,3.60
2023-05-22T04:27:12.351Z,4.70
2023-05-22T04:28:12.339Z,5.00
2023-05-22T04:29:12.332Z,4.70
2023-05-22T04:30:12.341Z,5.50
2023-05-22T04:31:12.391Z,4.10
2023-05-22T04:32:12.320Z,4.70
2023-05-22T04:33:12.389Z,4.60
2023-05-22T04:34:12.318Z,3.70
2023-05-22T04:35:12.359Z,5.40
2023-05-22T04:36:12.670Z,4.80
2023-05-22T04:37:33.314Z,4.40
2023-05-22T04:38:14.342Z,4.30
2023-05-22T04:39:12.328Z,5.60
2023-05-22T04:40:12.317Z,4.40
2023-05-22T04:41:12.285Z,4.30
2023-05-22T04:42:12.297Z,4.20
2023-05-22T04:43:12.291Z,4.60
2023-05-22T04:44:14.380Z,4.10
2023-05-22T04:45:12.272Z,5.50
2023-05-22T04:46:12.448Z,4.60
2023-05-22T04:47:12.331Z,4.70
2023-05-22T04:48:12.258Z,3.70
2023-05-22T04:49:12.302Z,4.70
2023-05-22T04:50:12.280Z,4.50
2023-05-22T04:51:12.264Z,4.80
2023-05-22T04:52:12.233Z,5.00
2023-05-22T04:53:12.234Z,3.90
2023-05-22T04:54:12.226Z,2.80
2023-05-22T04:55:12.246Z,3.90
2023-05-22T04:56:14.612Z,5.60
2023-05-22T04:57:12.217Z,5.10
2023-05-22T04:58:12.216Z,3.90
2023-05-22T04:59:12.216Z,4.60
2023-05-22T05:00:12.196Z,4.60
2023-05-22T05:01:12.239Z,5.00
2023-05-22T05:02:12.202Z,4.70
2023-05-22T05:03:12.262Z,4.00
2023-05-22T05:04:12.253Z,4.90
2023-05-22T05:05:12.181Z,4.60
2023-05-22T05:06:12.172Z,5.40
2023-05-22T05:07:12.164Z,5.00
2023-05-22T05:08:12.166Z,3.60
2023-05-22T05:09:12.162Z,4.70
2023-05-22T05:10:12.172Z,4.80
2023-05-22T05:11:12.153Z,4.50
2023-05-22T05:12:12.145Z,4.80
2023-05-22T05:13:12.143Z,5.30
2023-05-22T05:14:12.141Z,5.70
2023-05-22T05:15:12.153Z,3.90
2023-05-22T05:16:12.198Z,4.90
2023-05-22T05:17:12.123Z,5.10
2023-05-22T05:18:12.193Z,4.70
2023-05-22T05:19:12.176Z,4.90
2023-05-22T05:20:12.113Z,5.40
2023-05-22T05:21:12.109Z,5.70
2023-05-22T05:22:12.101Z,4.60
2023-05-22T05:23:12.110Z,6.70
2023-05-22T05:24:12.088Z,5.50
2023-05-22T05:25:12.086Z,5.00
2023-05-22T05:26:12.079Z,5.20
2023-05-22T05:27:12.076Z,4.60
2023-05-22T05:28:12.091Z,5.30
2023-05-22T05:29:12.092Z,6.00
2023-05-22T05:30:12.069Z,6.40
2023-05-22T05:31:12.070Z,4.50
2023-05-22T05:32:12.092Z,4.30
2023-05-22T05:33:12.148Z,5.00
2023-05-22T05:34:12.052Z,4.30
2023-05-22T05:35:12.043Z,4.10
2023-05-22T05:36:12.042Z,5.20
2023-05-22T05:37:12.037Z,4.60
2023-05-22T05:38:12.040Z,4.50
2023-05-22T05:39:12.046Z,6.70
2023-05-22T05:40:12.028Z,4.30
2023-05-22T05:41:12.058Z,5.80
2023-05-22T05:42:12.029Z,4.80
2023-05-22T05:43:12.009Z,5.40
2023-05-22T05:44:12.020Z,5.10
2023-05-22T05:45:11.997Z,4.20
2023-05-22T05:46:12.092Z,5.00
2023-05-22T05:47:12.009Z,5.00
2023-05-22T05:48:12.202Z,6.20
2023-05-22T05:49:12.016Z,4.50
2023-05-22T05:50:12.073Z,5.30
2023-05-22T05:51:12.007Z,4.50
2023-05-22T05:52:12.016Z,5.80
2023-05-22T05:53:11.970Z,4.50
2023-05-22T05:54:11.984Z,5.10
2023-05-22T05:55:11.987Z,6.30
2023-05-22T05:56:11.985Z,5.70
2023-05-22T05:57:11.957Z,5.60
2023-05-22T05:58:11.976Z,5.70
2023-05-22T05:59:11.961Z,4.60
2023-05-22T06:00:11.957Z,6.50
2023-05-22T06:01:11.955Z,5.00
2023-05-22T06:02:11.998Z,5.40
2023-05-22T06:03:12.067Z,6.60
2023-05-22T06:04:11.934Z,5.90
2023-05-22T06:05:11.995Z,5.20
2023-05-22T06:06:11.963Z,5.70
2023-05-22T06:07:11.936Z,5.60
2023-05-22T06:08:11.929Z,4.80
2023-05-22T06:09:11.911Z,5.20
2023-05-22T06:10:11.930Z,6.30
2023-05-22T06:11:11.906Z,4.90
2023-05-22T06:12:11.926Z,5.70
2023-05-22T06:13:11.916Z,5.40
2023-05-22T06:14:11.898Z,5.20
2023-05-22T06:15:11.885Z,4.90
2023-05-22T06:16:11.931Z,6.00
2023-05-22T06:17:11.867Z,5.20
2023-05-22T06:18:11.999Z,5.90
2023-05-22T06:19:11.939Z,4.70
2023-05-22T06:20:11.907Z,4.80
2023-05-22T06:21:11.875Z,5.50
2023-05-22T06:22:11.897Z,6.60
2023-05-22T06:23:11.869Z,6.50
2023-05-22T06:24:11.891Z,5.80
2023-05-22T06:25:11.850Z,6.00
2023-05-22T06:26:11.844Z,4.80
2023-05-22T06:27:11.866Z,6.10
2023-05-22T06:28:11.846Z,5.10
2023-05-22T06:29:11.833Z,5.60
2023-05-22T06:30:11.852Z,5.50
2023-05-22T06:31:11.818Z,5.90
2023-05-22T06:32:11.889Z,5.10
2023-05-22T06:33:11.869Z,6.50
2023-05-22T06:34:11.903Z,5.90
2023-05-22T06:35:11.879Z,6.30
2023-05-22T06:36:11.812Z,6.00
2023-05-22T06:37:11.801Z,5.10
2023-05-22T06:38:11.794Z,5.80
2023-05-22T06:39:11.819Z,5.20
2023-05-22T06:40:11.793Z,6.30
2023-05-22T06:41:11.816Z,5.70
2023-05-22T06:42:11.789Z,6.30
2023-05-22T06:43:11.782Z,5.70
2023-05-22T06:44:11.781Z,7.30
2023-05-22T06:45:11.796Z,6.00
2023-05-22T06:46:11.805Z,5.80
2023-05-22T06:47:11.773Z,4.90
2023-05-22T06:48:11.773Z,6.00
2023-05-22T06:49:11.767Z,5.40
2023-05-22T06:50:11.759Z,5.30
2023-05-22T06:51:11.821Z,5.90
2023-05-22T06:52:11.756Z,6.60
2023-05-22T06:53:11.745Z,6.70
2023-05-22T06:54:11.740Z,5.70
2023-05-22T06:55:11.749Z,6.20
2023-05-22T06:56:11.738Z,6.00
2023-05-22T06:57:11.743Z,6.20
2023-05-22T06:58:11.752Z,5.70
2023-05-22T06:59:11.729Z,6.60
2023-05-22T07:00:11.732Z,5.70
2023-05-22T07:01:11.736Z,6.30
2023-05-22T07:02:11.717Z,6.70
2023-05-22T07:03:11.738Z,6.30
2023-05-22T07:04:11.715Z,8.10
2023-05-22T07:05:11.709Z,7.00
2023-05-22T07:06:11.800Z,7.20
2023-05-22T07:07:11.707Z,7.90
2023-05-22T07:08:11.688Z,6.40
2023-05-22T07:09:11.697Z,4.80
2023-05-22T07:10:11.688Z,6.80
2023-05-22T07:11:11.683Z,7.00
2023-05-22T07:12:11.677Z,6.80
2023-05-22T07:13:11.675Z,8.30
2023-05-22T07:14:11.676Z,9.20
2023-05-22T07:15:11.665Z,6.80
2023-05-22T07:16:11.707Z,6.80
2023-05-22T07:17:11.663Z,8.50
2023-05-22T07:18:11.704Z,7.10
2023-05-22T07:19:11.712Z,7.30
2023-05-22T07:20:11.653Z,6.30
2023-05-22T07:21:11.670Z,7.50
2023-05-22T07:22:11.646Z,6.50
2023-05-22T07:23:11.651Z,8.00
2023-05-22T07:24:11.655Z,7.00
2023-05-22T07:25:11.640Z,6.50
2023-05-22T07:26:11.721Z,7.90
2023-05-22T07:27:11.632Z,8.10
2023-05-22T07:28:11.642Z,7.10
2023-05-22T07:29:11.615Z,7.30
2023-05-22T07:30:11.626Z,7.30
2023-05-22T07:31:11.637Z,8.20
2023-05-22T07:32:11.611Z,7.20
2023-05-22T07:33:11.708Z,6.90
2023-05-22T07:34:11.620Z,6.50
2023-05-22T07:35:11.610Z,7.70
2023-05-22T07:36:11.601Z,8.80
2023-05-22T07:37:11.598Z,6.90
2023-05-22T07:38:11.596Z,7.80
2023-05-22T07:39:11.596Z,7.80
2023-05-22T07:40:11.590Z,8.60
2023-05-22T07:41:11.583Z,8.20
2023-05-22T07:42:11.578Z,6.40
2023-05-22T07:43:11.575Z,7.30
2023-05-22T07:44:11.573Z,6.90
2023-05-22T07:45:11.569Z,6.90
2023-05-22T07:46:11.753Z,6.30
2023-05-22T07:47:11.568Z,6.20
2023-05-22T07:48:11.617Z,8.00
2023-05-22T07:49:11.560Z,7.00
2023-05-22T07:50:11.551Z,7.00
2023-05-22T07:51:11.547Z,7.20
2023-05-22T07:52:11.552Z,5.60
2023-05-22T07:53:11.539Z,8.70
2023-05-22T07:54:11.536Z,10.70
2023-05-22T07:55:11.526Z,8.90
2023-05-22T07:56:11.531Z,8.40
2023-05-22T07:57:11.547Z,8.90
2023-05-22T07:58:11.648Z,7.10
2023-05-22T07:59:11.517Z,7.40
2023-05-22T08:00:11.552Z,7.60
2023-05-22T08:01:11.520Z,8.30
2023-05-22T08:02:11.567Z,8.40
2023-05-22T08:03:11.568Z,7.60
2023-05-22T08:04:11.658Z,7.90
2023-05-22T08:05:11.547Z,8.70
2023-05-22T08:06:11.500Z,9.50
2023-05-22T08:07:11.493Z,7.90
2023-05-22T08:08:11.486Z,8.50
2023-05-22T08:09:11.488Z,8.60
2023-05-22T08:10:11.498Z,11.20
2023-05-22T08:11:11.497Z,9.10
2023-05-22T08:12:11.492Z,8.90
2023-05-22T08:13:11.473Z,9.20
2023-05-22T08:14:11.552Z,8.70
2023-05-22T08:15:11.473Z,9.50
2023-05-22T08:16:11.464Z,10.00
2023-05-22T08:17:11.510Z,7.90
2023-05-22T08:18:11.508Z,6.80
2023-05-22T08:19:11.512Z,8.00
2023-05-22T08:20:11.639Z,10.10
2023-05-22T08:21:11.442Z,8.60
2023-05-22T08:22:11.441Z,9.10
2023-05-22T08:23:11.505Z,7.70
2023-05-22T08:24:11.452Z,10.10
2023-05-22T08:25:11.439Z,7.20
2023-05-22T08:26:11.453Z,7.00
2023-05-22T08:27:11.431Z,8.50
2023-05-22T08:28:11.424Z,7.70
2023-05-22T08:29:11.422Z,8.00
2023-05-22T08:30:11.458Z,7.80
2023-05-22T08:31:11.471Z,8.40
2023-05-22T08:32:11.423Z,7.60
2023-05-22T08:33:11.437Z,8.90
2023-05-22T08:34:11.417Z,7.40
2023-05-22T08:35:11.413Z,8.60
2023-05-22T08:36:11.419Z,7.30
2023-05-22T08:37:11.405Z,8.80
2023-05-22T08:38:11.404Z,8.20
2023-05-22T08:39:11.401Z,7.90
2023-05-22T08:40:11.403Z,8.20
2023-05-22T08:41:11.457Z,8.40
2023-05-22T08:42:11.392Z,9.50
2023-05-22T08:43:11.413Z,8.10
2023-05-22T08:44:11.394Z,7.70
2023-05-22T08:45:11.402Z,8.50
2023-05-22T08:46:11.410Z,8.30
2023-05-22T08:47:11.471Z,9.90
2023-05-22T08:48:11.376Z,8.30
2023-05-22T08:49:11.379Z,7.00
2023-05-22T08:50:11.381Z,6.40
2023-05-22T08:51:11.379Z,7.10
2023-05-22T08:52:11.384Z,8.30
2023-05-22T08:53:11.402Z,7.40
2023-05-22T08:54:11.379Z,8.30
2023-05-22T08:55:11.370Z,8.00
2023-05-22T08:56:11.362Z,7.80
2023-05-22T08:57:11.373Z,7.00
2023-05-22T08:58:11.364Z,6.80
2023-05-22T08:59:11.359Z,9.30
2023-05-22T09:00:11.369Z,8.70
2023-05-22T09:01:11.374Z,8.10
2023-05-22T09:02:11.483Z,7.40
2023-05-22T09:03:11.446Z,7.70
2023-05-22T09:04:11.454Z,8.40
2023-05-22T09:05:11.352Z,8.50
2023-05-22T09:06:11.346Z,9.90
2023-05-22T09:07:11.352Z,8.50
2023-05-22T09:08:19.608Z,9.80
2023-05-22T09:09:11.355Z,8.70
2023-05-22T09:10:11.359Z,9.00
2023-05-22T09:11:11.361Z,7.40
2023-05-22T09:12:11.390Z,7.00
2023-05-22T09:13:11.398Z,7.70
2023-05-22T09:14:11.346Z,8.50
2023-05-22T09:15:11.355Z,6.20
2023-05-22T09:16:11.353Z,8.80
2023-05-22T09:17:11.568Z,7.70
2023-05-22T09:18:11.373Z,10.50
2023-05-22T09:19:11.396Z,6.80
2023-05-22T09:20:11.344Z,8.10
2023-05-22T09:21:25.698Z,9.30
2023-05-22T09:22:11.349Z,8.60
2023-05-22T09:23:11.365Z,8.20
2023-05-22T09:24:11.343Z,8.60
2023-05-22T09:25:11.353Z,8.10
2023-05-22T09:26:11.343Z,7.70
2023-05-22T09:27:11.361Z,8.40
2023-05-22T09:28:11.346Z,8.00
2023-05-22T09:29:11.347Z,7.40
2023-05-22T09:30:11.345Z,7.30
2023-05-22T09:31:11.397Z,9.70
2023-05-22T09:32:11.345Z,8.70
2023-05-22T09:33:11.353Z,7.90
2023-05-22T09:34:11.348Z,7.20
2023-05-22T09:35:11.346Z,9.60
2023-05-22T09:36:11.346Z,8.30
2023-05-22T09:37:11.353Z,8.80
2023-05-22T09:38:12.288Z,8.60
2023-05-22T09:39:11.363Z,9.40
2023-05-22T09:40:11.349Z,8.60
2023-05-22T09:41:11.346Z,8.90
2023-05-22T09:42:11.362Z,8.80
2023-05-22T09:43:11.363Z,8.60
2023-05-22T09:44:11.349Z,8.30
2023-05-22T09:45:11.359Z,8.10
2023-05-22T09:46:11.388Z,9.00
2023-05-22T09:47:11.397Z,8.30
2023-05-22T09:48:11.355Z,9.40
2023-05-22T09:49:14.158Z,7.70
2023-05-22T09:50:11.421Z,9.20
2023-05-22T09:51:11.366Z,9.20
2023-05-22T09:52:11.359Z,8.00
2023-05-22T09:53:11.358Z,8.60
2023-05-22T09:54:11.362Z,8.60
2023-05-22T09:55:11.375Z,8.30
2023-05-22T09:56:11.361Z,9.50
2023-05-22T09:57:11.382Z,7.90
2023-05-22T09:58:11.372Z,9.40
2023-05-22T09:59:11.376Z,9.90
2023-05-22T10:00:11.399Z,8.40
2023-05-22T10:01:11.383Z,8.30
2023-05-22T10:02:11.440Z,9.20
2023-05-22T10:03:11.404Z,11.20
2023-05-22T10:04:11.405Z,9.30
2023-05-22T10:05:11.395Z,9.10
2023-05-22T10:06:11.390Z,9.00
2023-05-22T10:07:11.402Z,9.80
2023-05-22T10:08:11.401Z,9.20
2023-05-22T10:09:11.390Z,10.30
2023-05-22T10:10:11.416Z,7.70
2023-05-22T10:11:11.416Z,8.40
2023-05-22T10:12:11.418Z,8.80
2023-05-22T10:13:11.413Z,9.80
2023-05-22T10:14:11.404Z,9.30
2023-05-22T10:15:11.431Z,9.90
2023-05-22T10:16:11.478Z,11.20
2023-05-22T10:17:11.427Z,10.10
2023-05-22T10:18:11.480Z,9.60
2023-05-22T10:19:11.468Z,8.50
2023-05-22T10:20:11.420Z,10.00
2023-05-22T10:21:11.430Z,8.90
2023-05-22T10:22:11.519Z,9.10
2023-05-22T10:23:11.434Z,10.20
2023-05-22T10:24:11.440Z,8.40
2023-05-22T10:25:11.452Z,9.70
2023-05-22T10:26:11.440Z,9.30
2023-05-22T10:27:11.446Z,10.20
2023-05-22T10:28:11.440Z,9.00
2023-05-22T10:29:11.446Z,9.00
2023-05-22T10:30:11.485Z,8.30
2023-05-22T10:31:11.457Z,10.40
2023-05-22T10:32:11.449Z,9.60
2023-05-22T10:33:11.527Z,8.40
2023-05-22T10:34:11.487Z,9.40
2023-05-22T10:35:11.465Z,8.00
2023-05-22T10:36:11.470Z,9.40
2023-05-22T10:37:17.122Z,8.90
2023-05-22T10:38:11.564Z,9.80
2023-05-22T10:39:11.468Z,9.70
2023-05-22T10:40:11.476Z,9.90
2023-05-22T10:41:11.475Z,8.70
2023-05-22T10:42:11.486Z,8.70
2023-05-22T10:43:11.482Z,8.70
2023-05-22T10:44:11.479Z,7.30
2023-05-22T10:45:11.479Z,8.70
2023-05-22T10:46:11.554Z,9.60
2023-05-22T10:47:11.535Z,7.70
2023-05-22T10:48:11.481Z,8.80
2023-05-22T10:49:11.492Z,8.00
2023-05-22T10:50:11.561Z,7.90
2023-05-22T10:51:11.494Z,9.80
2023-05-22T10:52:11.493Z,9.50
2023-05-22T10:53:11.501Z,7.70
2023-05-22T10:54:11.575Z,9.30
2023-05-22T10:55:11.513Z,8.40
2023-05-22T10:56:11.480Z,9.20
2023-05-22T10:57:11.491Z,8.10
2023-05-22T10:58:11.501Z,8.70
2023-05-22T10:59:11.505Z,8.00
2023-05-22T11:00:11.488Z,8.80
2023-05-22T11:01:11.509Z,8.70
2023-05-22T11:02:11.659Z,7.40
2023-05-22T11:03:18.006Z,6.60
2023-05-22T11:04:11.553Z,7.30
2023-05-22T11:05:11.583Z,6.50
2023-05-22T11:06:11.494Z,8.50
2023-05-22T11:07:11.496Z,8.00
2023-05-22T11:08:11.493Z,6.60
2023-05-22T11:09:11.502Z,6.10
2023-05-22T11:10:11.578Z,6.40
2023-05-22T11:11:11.517Z,5.60
2023-05-22T11:12:11.497Z,8.20
2023-05-22T11:13:11.497Z,6.00
2023-05-22T11:14:11.505Z,6.30
2023-05-22T11:15:11.492Z,8.30
2023-05-22T11:16:11.487Z,7.00
2023-05-22T11:17:11.543Z,7.50
2023-05-22T11:18:11.615Z,7.00
2023-05-22T11:19:22.653Z,7.00
2023-05-22T11:20:11.695Z,6.70
2023-05-22T11:21:11.507Z,7.90
2023-05-22T11:22:11.501Z,7.10
2023-05-22T11:23:11.522Z,5.70
2023-05-22T11:24:11.518Z,7.10
2023-05-22T11:25:11.525Z,8.80
2023-05-22T11:26:11.590Z,8.40
2023-05-22T11:27:11.501Z,6.20
2023-05-22T11:28:11.506Z,7.90
2023-05-22T11:29:11.500Z,7.50
2023-05-22T11:30:11.506Z,7.50
2023-05-22T11:31:11.531Z,8.30
2023-05-22T11:32:11.503Z,7.30
2023-05-22T11:33:11.552Z,8.50
2023-05-22T11:34:11.532Z,7.60
2023-05-22T11:35:11.505Z,7.70
2023-05-22T11:36:11.512Z,8.50
2023-05-22T11:37:11.498Z,8.20
2023-05-22T11:38:11.540Z,6.60
2023-05-22T11:39:11.505Z,7.70
2023-05-22T11:40:11.501Z,8.20
2023-05-22T11:41:11.494Z,8.00
2023-05-22T11:42:11.602Z,7.20
2023-05-22T11:43:11.528Z,8.90
2023-05-22T11:44:11.506Z,7.80
2023-05-22T11:45:11.509Z,6.60
2023-05-22T11:46:11.533Z,8.40
2023-05-22T11:47:11.510Z,6.80
2023-05-22T11:48:12.830Z,7.40
2023-05-22T11:49:11.511Z,7.90
2023-05-22T11:50:11.519Z,8.00
2023-05-22T11:51:11.535Z,7.70
2023-05-22T11:52:11.515Z,8.60
2023-05-22T11:53:11.503Z,8.40
2023-05-22T11:54:11.504Z,9.10
2023-05-22T11:55:11.519Z,6.90
2023-05-22T11:56:11.512Z,7.20
2023-05-22T11:57:11.503Z,6.30
2023-05-22T11:58:11.611Z,8.00
2023-05-22T11:59:11.508Z,7.90
2023-05-22T12:00:11.534Z,9.00
2023-05-22T12:01:11.514Z,8.90
2023-05-22T12:02:11.507Z,9.20
2023-05-22T12:03:11.542Z,8.20
2023-05-22T12:04:11.638Z,8.20
2023-05-22T12:05:11.507Z,8.20
2023-05-22T12:06:11.527Z,7.50
2023-05-22T12:07:11.508Z,7.90
2023-05-22T12:08:11.505Z,9.10
2023-05-22T12:09:11.502Z,8.40
2023-05-22T12:10:11.543Z,8.50
2023-05-22T12:11:11.507Z,7.80
2023-05-22T12:12:11.537Z,7.90
2023-05-22T12:13:11.497Z,8.30
2023-05-22T12:14:11.613Z,9.70
2023-05-22T12:15:11.543Z,7.20
2023-05-22T12:16:11.533Z,7.90
2023-05-22T12:17:11.508Z,7.50
2023-05-22T12:18:11.544Z,8.40
2023-05-22T12:19:11.580Z,8.80
2023-05-22T12:20:11.516Z,9.20
2023-05-22T12:21:11.514Z,9.80
2023-05-22T12:22:11.504Z,7.60
2023-05-22T12:23:11.514Z,8.00
2023-05-22T12:24:11.508Z,6.90
2023-05-22T12:25:11.506Z,8.30
2023-05-22T12:26:11.503Z,8.70
2023-05-22T12:27:11.509Z,8.50
2023-05-22T12:28:11.503Z,7.70
2023-05-22T12:29:11.510Z,7.80
2023-05-22T12:30:11.610Z,8.80
2023-05-22T12:31:11.517Z,8.10
2023-05-22T12:32:11.658Z,7.20
2023-05-22T12:33:11.556Z,9.60
2023-05-22T12:34:11.511Z,8.80
2023-05-22T12:35:11.539Z,8.40
2023-05-22T12:36:11.502Z,8.10
2023-05-22T12:37:11.550Z,8.40
2023-05-22T12:38:11.532Z,8.70
2023-05-22T12:39:11.551Z,8.80
2023-05-22T12:40:11.567Z,7.50
2023-05-22T12:41:11.523Z,9.00
2023-05-22T12:42:11.507Z,9.50
2023-05-22T12:43:11.514Z,8.10
2023-05-22T12:44:11.512Z,8.30
2023-05-22T12:45:11.554Z,7.60
2023-05-22T12:46:11.634Z,7.70
2023-05-22T12:47:11.507Z,8.90
2023-05-22T12:48:11.548Z,9.00
2023-05-22T12:49:11.513Z,7.50
2023-05-22T12:50:11.558Z,7.70
2023-05-22T12:51:11.513Z,7.80
2023-05-22T12:52:11.512Z,7.20
2023-05-22T12:53:11.513Z,8.30
2023-05-22T12:54:11.511Z,7.30
2023-05-22T12:55:11.520Z,8.20
2023-05-22T12:56:11.517Z,7.70
2023-05-22T12:57:11.555Z,8.00
2023-05-22T12:58:11.504Z,7.30
2023-05-22T12:59:11.544Z,6.80
2023-05-22T13:00:11.540Z,6.90
2023-05-22T13:01:11.509Z,6.80
2023-05-22T13:02:11.620Z,7.70
2023-05-22T13:03:11.534Z,7.40
2023-05-22T13:04:11.513Z,8.00
2023-05-22T13:05:11.574Z,8.10
2023-05-22T13:06:11.508Z,7.70
2023-05-22T13:07:11.512Z,9.20
2023-05-22T13:08:11.511Z,7.60
2023-05-22T13:09:11.509Z,7.90
2023-05-22T13:10:11.563Z,8.10
2023-05-22T13:11:11.518Z,7.10
2023-05-22T13:12:11.569Z,8.80
2023-05-22T13:13:11.504Z,9.00
2023-05-22T13:14:11.507Z,7.80
2023-05-22T13:15:11.509Z,7.60
2023-05-22T13:16:11.574Z,7.80
2023-05-22T13:17:11.523Z,9.50
2023-05-22T13:18:11.650Z,8.50
2023-05-22T13:19:11.589Z,8.40
2023-05-22T13:20:11.510Z,9.00